createdAt,value
2023-04-17T00:01:39.567Z,38.03
2023-04-17T00:04:11.002Z,36.60
2023-04-17T00:06:38.482Z,36.63
2023-04-17T00:09:06.048Z,37.85
2023-04-17T00:11:32.882Z,37.10
2023-04-17T00:13:59.629Z,37.70
2023-04-17T00:16:27.420Z,39.50
2023-04-17T00:18:54.947Z,40.95
2023-04-17T00:21:21.887Z,42.15
2023-04-17T00:23:48.853Z,40.30
2023-04-17T00:26:16.450Z,41.50
2023-04-17T00:28:43.229Z,39.60
2023-04-17T00:31:09.958Z,39.70
2023-04-17T00:33:36.649Z,38.28
2023-04-17T00:36:03.451Z,38.42
2023-04-17T00:38:30.125Z,39.58
2023-04-17T00:40:56.774Z,38.25
2023-04-17T00:43:23.571Z,41.40
2023-04-17T00:45:50.609Z,40.70
2023-04-17T00:48:18.397Z,40.00
2023-04-17T00:50:45.688Z,36.97
2023-04-17T00:53:13.960Z,38.35
2023-04-17T00:55:42.131Z,36.72
2023-04-17T00:58:09.484Z,39.45
2023-04-17T01:00:36.242Z,38.95
2023-04-17T01:03:03.301Z,36.67
2023-04-17T01:05:30.114Z,34.88
2023-04-17T01:07:58.505Z,36.42
2023-04-17T01:10:25.262Z,36.88
2023-04-17T01:13:02.675Z,37.10
2023-04-17T01:15:29.574Z,37.38
2023-04-17T01:17:56.445Z,34.38
2023-04-17T01:20:23.312Z,35.42
2023-04-17T01:22:50.269Z,36.15
2023-04-17T01:25:17.017Z,35.20
2023-04-17T01:27:43.727Z,37.20
2023-04-17T01:30:11.119Z,37.03
2023-04-17T01:32:37.869Z,35.75
2023-04-17T01:35:04.830Z,35.85
2023-04-17T01:37:31.585Z,35.10
2023-04-17T01:40:01.434Z,35.45
2023-04-17T01:42:28.235Z,32.70
2023-04-17T01:44:54.899Z,34.40
2023-04-17T01:47:21.645Z,33.67
2023-04-17T01:49:48.419Z,33.63
2023-04-17T01:52:15.106Z,33.33
2023-04-17T01:54:41.804Z,33.65
2023-04-17T01:57:08.546Z,34.20
2023-04-17T01:59:35.393Z,37.03
2023-04-17T02:02:02.182Z,36.00
2023-04-17T02:04:29.029Z,34.70
2023-04-17T02:06:55.762Z,29.70
2023-04-17T02:09:22.500Z,30.77
2023-04-17T02:11:49.157Z,32.38
2023-04-17T02:14:17.803Z,31.73
2023-04-17T02:16:45.840Z,33.08
2023-04-17T02:19:13.610Z,31.73
2023-04-17T02:21:40.696Z,34.58
2023-04-17T02:24:07.424Z,32.08
2023-04-17T02:26:34.341Z,33.30
2023-04-17T02:29:01.077Z,31.90
2023-04-17T02:31:27.791Z,32.60
2023-04-17T02:33:54.570Z,30.45
2023-04-17T02:36:21.753Z,33.13
2023-04-17T02:38:48.485Z,31.20
2023-04-17T02:41:15.513Z,31.55
2023-04-17T02:43:42.299Z,31.13
2023-04-17T02:46:09.033Z,32.47
2023-04-17T02:48:35.800Z,30.40
2023-04-17T02:51:02.553Z,30.60
2023-04-17T02:53:29.265Z,30.85
2023-04-17T02:55:55.943Z,30.40
2023-04-17T02:58:22.651Z,30.85
2023-04-17T03:00:49.405Z,30.35
2023-04-17T03:03:16.232Z,32.10
2023-04-17T03:05:43.218Z,32.63
2023-04-17T03:08:09.965Z,32.70
2023-04-17T03:10:36.709Z,32.63
2023-04-17T03:13:04.488Z,33.03
2023-04-17T03:15:31.240Z,28.98
2023-04-17T03:17:58.070Z,28.95
2023-04-17T03:20:24.900Z,28.00
2023-04-17T03:22:51.630Z,30.40
2023-04-17T03:25:18.400Z,27.90
2023-04-17T03:27:45.114Z,28.25
2023-04-17T03:30:12.146Z,27.65
2023-04-17T03:32:38.866Z,28.33
2023-04-17T03:35:06.446Z,28.17
2023-04-17T03:37:33.214Z,29.75
2023-04-17T03:39:59.932Z,30.10
2023-04-17T03:42:27.217Z,30.38
2023-04-17T03:44:53.953Z,30.58
2023-04-17T03:47:20.786Z,29.58
2023-04-17T03:49:47.455Z,31.17
2023-04-17T03:52:14.134Z,31.63
2023-04-17T03:54:40.952Z,29.92
2023-04-17T03:57:07.687Z,30.63
2023-04-17T03:59:34.418Z,33.05
2023-04-17T04:02:01.243Z,31.00
2023-04-17T04:04:28.227Z,32.33
2023-04-17T04:06:57.485Z,29.25
2023-04-17T04:09:25.763Z,30.70
2023-04-17T04:11:52.504Z,31.80
2023-04-17T04:14:19.342Z,31.83
2023-04-17T04:16:46.185Z,32.45
2023-04-17T04:19:13.215Z,31.80
2023-04-17T04:21:42.305Z,31.83
2023-04-17T04:24:10.094Z,32.58
2023-04-17T04:26:37.910Z,32.90
2023-04-17T04:29:04.734Z,30.52
2023-04-17T04:31:32.042Z,30.60
2023-04-17T04:33:59.629Z,30.65
2023-04-17T04:36:30.226Z,31.95
2023-04-17T04:39:00.829Z,29.92
2023-04-17T04:41:29.884Z,29.23
2023-04-17T04:43:56.745Z,29.85
2023-04-17T04:46:23.487Z,30.65
2023-04-17T04:48:50.317Z,31.85
2023-04-17T04:51:19.109Z,30.17
2023-04-17T04:53:46.115Z,30.80
2023-04-17T04:56:12.943Z,30.05
2023-04-17T04:58:39.692Z,30.60
2023-04-17T05:01:06.873Z,30.38
2023-04-17T05:03:34.003Z,31.30
2023-04-17T05:06:00.885Z,31.00
2023-04-17T05:08:27.882Z,30.85
2023-04-17T05:10:54.675Z,30.13
2023-04-17T05:13:21.447Z,29.52
2023-04-17T05:15:48.172Z,30.65
2023-04-17T05:18:14.940Z,31.02
2023-04-17T05:20:41.700Z,30.83
2023-04-17T05:23:08.534Z,30.70
2023-04-17T05:25:35.405Z,31.38
2023-04-17T05:28:02.099Z,32.65
2023-04-17T05:30:28.846Z,31.83
2023-04-17T05:32:55.944Z,32.35
2023-04-17T05:35:22.791Z,31.58
2023-04-17T05:37:49.580Z,31.35
2023-04-17T05:40:16.405Z,31.58
2023-04-17T05:42:43.167Z,31.27
2023-04-17T05:45:13.574Z,32.15
2023-04-17T05:47:41.073Z,32.63
2023-04-17T05:50:08.654Z,34.35
2023-04-17T05:52:38.048Z,33.17
2023-04-17T05:55:06.835Z,32.58
2023-04-17T05:57:33.551Z,33.13
2023-04-17T06:00:00.255Z,29.67
2023-04-17T06:02:27.196Z,29.92
2023-04-17T06:04:54.251Z,31.35
2023-04-17T06:07:21.593Z,30.98
2023-04-17T06:09:48.343Z,32.03
2023-04-17T06:12:16.304Z,29.88
2023-04-17T06:14:43.798Z,29.45
2023-04-17T06:17:12.296Z,29.75
2023-04-17T06:19:39.673Z,30.15
2023-04-17T06:22:06.524Z,31.15
2023-04-17T06:24:33.585Z,31.58
2023-04-17T06:27:00.363Z,32.03
2023-04-17T06:29:27.094Z,31.60
2023-04-17T06:31:53.804Z,32.10
2023-04-17T06:34:20.919Z,32.10
2023-04-17T06:36:48.224Z,31.08
2023-04-17T06:39:15.006Z,30.98
2023-04-17T06:41:41.661Z,31.88
2023-04-17T06:44:08.729Z,31.65
2023-04-17T06:46:35.589Z,32.13
2023-04-17T06:49:02.771Z,31.33
2023-04-17T06:51:29.484Z,31.50
2023-04-17T06:53:56.210Z,32.60
2023-04-17T06:56:24.191Z,31.80
2023-04-17T06:58:51.499Z,33.03
2023-04-17T07:01:18.379Z,32.17
2023-04-17T07:03:46.684Z,31.17
2023-04-17T07:06:13.530Z,31.80
2023-04-17T07:08:40.265Z,32.63
2023-04-17T07:11:07.234Z,32.92
2023-04-17T07:13:33.984Z,32.60
2023-04-17T07:16:01.396Z,31.38
2023-04-17T07:18:30.944Z,31.67
2023-04-17T07:20:57.757Z,30.98
2023-04-17T07:23:24.678Z,31.55
2023-04-17T07:25:51.549Z,29.17
2023-04-17T07:28:18.515Z,30.38
2023-04-17T07:30:45.445Z,30.60
2023-04-17T07:33:12.271Z,29.83
2023-04-17T07:35:39.110Z,29.48
2023-04-17T07:38:05.998Z,32.35
2023-04-17T07:40:36.976Z,33.03
2023-04-17T07:43:04.062Z,32.20
2023-04-17T07:45:30.912Z,34.25
2023-04-17T07:47:57.731Z,33.35
2023-04-17T07:50:24.813Z,32.53
2023-04-17T07:52:51.633Z,33.33
2023-04-17T07:55:18.358Z,34.47
2023-04-17T07:57:46.823Z,31.73
2023-04-17T08:00:14.750Z,32.42
2023-04-17T08:02:42.483Z,32.30
2023-04-17T08:05:10.012Z,33.65
2023-04-17T08:07:37.449Z,34.28
2023-04-17T08:10:04.877Z,35.00
2023-04-17T08:12:31.657Z,33.58
2023-04-17T08:14:58.396Z,35.88
2023-04-17T08:17:26.004Z,34.85
2023-04-17T08:19:57.575Z,35.03
2023-04-17T08:22:25.542Z,35.35
2023-04-17T08:24:57.722Z,35.25
2023-04-17T08:27:28.149Z,35.35
2023-04-17T08:29:54.848Z,36.55
2023-04-17T08:32:21.798Z,32.25
2023-04-17T08:34:48.673Z,30.90
2023-04-17T08:37:15.470Z,29.83
2023-04-17T08:39:42.237Z,28.58
2023-04-17T08:42:15.773Z,30.95
2023-04-17T08:44:45.595Z,31.35
2023-04-17T08:47:13.619Z,31.30
2023-04-17T08:49:43.596Z,29.73
2023-04-17T08:52:11.320Z,30.00
2023-04-17T08:54:38.881Z,30.55
2023-04-17T08:57:06.279Z,30.95
2023-04-17T08:59:33.551Z,29.85
2023-04-17T09:02:05.205Z,29.25
2023-04-17T09:07:04.475Z,29.65
2023-04-17T09:10:00.816Z,30.67
2023-04-17T09:12:27.571Z,28.23
2023-04-17T09:14:54.373Z,28.95
2023-04-17T09:17:21.733Z,29.48
2023-04-17T09:20:09.295Z,29.73
2023-04-17T09:22:37.405Z,28.75
2023-04-17T09:25:05.275Z,27.73
2023-04-17T09:27:32.549Z,27.17
2023-04-17T09:30:01.071Z,27.90
2023-04-17T09:32:29.055Z,28.02
2023-04-17T09:34:58.540Z,28.08
2023-04-17T09:37:25.586Z,28.02
2023-04-17T09:40:00.109Z,27.70
2023-04-17T09:42:28.042Z,28.73
2023-04-17T09:44:55.141Z,27.35
2023-04-17T09:47:25.246Z,27.63
2023-04-17T09:49:52.942Z,27.27
2023-04-17T09:52:23.601Z,27.50
2023-04-17T09:54:53.769Z,26.65
2023-04-17T09:57:21.119Z,28.27
2023-04-17T09:59:49.088Z,27.98
2023-04-17T10:02:18.426Z,27.20
2023-04-17T10:04:46.773Z,27.35
2023-04-17T10:07:14.442Z,27.80
2023-04-17T10:09:42.112Z,26.95
2023-04-17T10:12:20.372Z,27.60
2023-04-17T10:14:51.853Z,27.60
2023-04-17T10:17:34.651Z,27.80
2023-04-17T10:20:17.530Z,27.95
2023-04-17T10:22:45.193Z,27.25
2023-04-17T10:25:12.604Z,26.40
2023-04-17T10:27:42.348Z,25.85
2023-04-17T10:30:12.864Z,25.90
2023-04-17T10:32:42.318Z,26.80
2023-04-17T10:35:18.070Z,25.65
2023-04-17T10:37:47.931Z,26.40
2023-04-17T10:40:30.037Z,25.73
2023-04-17T10:43:23.594Z,27.13
2023-04-17T10:45:55.279Z,25.77
2023-04-17T10:51:24.118Z,26.00
2023-04-17T10:53:57.963Z,25.80
2023-04-17T10:56:25.902Z,25.52
2023-04-17T10:59:03.503Z,26.67
2023-04-17T11:01:50.992Z,25.63
2023-04-17T11:04:25.388Z,25.05
2023-04-17T11:06:55.706Z,24.88
2023-04-17T11:09:28.186Z,24.63
2023-04-17T11:11:58.061Z,24.65
2023-04-17T11:14:24.760Z,23.40
2023-04-17T11:16:52.130Z,23.27
2023-04-17T11:19:24.221Z,23.00
2023-04-17T11:21:58.386Z,22.42
2023-04-17T11:24:30.348Z,24.25
2023-04-17T11:27:03.379Z,22.65
2023-04-17T11:29:30.366Z,23.10
2023-04-17T11:31:58.145Z,20.98
2023-04-17T11:34:26.732Z,22.10
2023-04-17T11:36:58.731Z,21.52
2023-04-17T11:39:28.687Z,21.33
2023-04-17T11:41:57.129Z,22.73
2023-04-17T11:44:24.764Z,23.23
2023-04-17T11:46:52.552Z,22.77
2023-04-17T11:49:28.527Z,21.35
2023-04-17T11:51:56.719Z,21.88
2023-04-17T11:54:27.554Z,21.45
2023-04-17T11:57:11.438Z,23.30
2023-04-17T11:59:42.150Z,21.73
2023-04-17T12:02:09.649Z,21.83
2023-04-17T12:04:37.907Z,22.88
2023-04-17T12:07:06.062Z,22.10
2023-04-17T12:09:34.244Z,21.85
2023-04-17T12:12:02.696Z,21.75
2023-04-17T12:14:29.618Z,19.58
2023-04-17T12:16:56.377Z,20.42
2023-04-17T12:19:25.484Z,19.38
2023-04-17T12:21:52.555Z,19.77
2023-04-17T12:24:20.740Z,20.58
2023-04-17T12:26:48.805Z,20.30
2023-04-17T12:29:16.561Z,20.25
2023-04-17T12:31:44.355Z,19.92
2023-04-17T12:34:11.414Z,19.48
2023-04-17T12:36:38.650Z,19.83
2023-04-17T12:39:05.412Z,20.02
2023-04-17T12:41:32.158Z,19.98
2023-04-17T12:44:01.784Z,20.35
2023-04-17T12:46:28.810Z,19.33
2023-04-17T12:48:58.588Z,19.63
2023-04-17T12:51:28.500Z,19.90
2023-04-17T12:53:56.247Z,20.67
2023-04-17T12:56:23.425Z,20.92
2023-04-17T12:58:50.169Z,19.88
2023-04-17T13:01:16.970Z,20.33
2023-04-17T13:03:44.021Z,21.38
2023-04-17T13:06:11.001Z,20.55
2023-04-17T13:08:37.699Z,19.00
2023-04-17T13:11:04.698Z,19.35
2023-04-17T13:13:31.507Z,18.98
2023-04-17T13:15:58.910Z,19.20
2023-04-17T13:18:26.348Z,18.88
2023-04-17T13:20:53.052Z,19.83
2023-04-17T13:23:19.729Z,20.30
2023-04-17T13:25:47.245Z,20.05
2023-04-17T13:28:13.965Z,19.58
2023-04-17T13:30:41.049Z,18.90
2023-04-17T13:33:08.019Z,18.73
2023-04-17T13:35:34.850Z,18.13
2023-04-17T13:38:03.229Z,18.52
2023-04-17T13:40:30.618Z,19.10
2023-04-17T13:42:57.389Z,18.00
2023-04-17T13:45:24.448Z,16.60
2023-04-17T13:47:51.400Z,16.52
2023-04-17T13:50:18.195Z,15.70
2023-04-17T13:52:44.935Z,16.10
2023-04-17T13:55:14.645Z,16.00
2023-04-17T13:57:41.536Z,16.63
2023-04-17T14:00:08.960Z,18.35
2023-04-17T14:02:35.835Z,18.52
2023-04-17T14:05:02.794Z,21.88
2023-04-17T14:07:30.116Z,18.45
2023-04-17T14:09:56.897Z,16.88
2023-04-17T14:12:23.644Z,18.92
2023-04-17T14:14:50.563Z,18.83
2023-04-17T14:17:18.052Z,28.98
2023-04-17T14:19:44.802Z,21.77
2023-04-17T14:22:11.542Z,59.97
2023-04-17T14:24:38.277Z,57.75
2023-04-17T14:27:05.337Z,30.35
2023-04-17T14:29:32.029Z,36.30
2023-04-17T14:31:58.936Z,27.48
2023-04-17T14:34:25.930Z,25.60
2023-04-17T14:36:53.146Z,35.60
2023-04-17T14:39:19.949Z,20.98
2023-04-17T14:41:46.812Z,25.77
2023-04-17T14:44:13.786Z,37.55
2023-04-17T14:46:40.695Z,26.05
2023-04-17T14:49:07.857Z,20.98
2023-04-17T14:51:34.615Z,16.88
2023-04-17T14:54:01.396Z,19.73
2023-04-17T14:56:28.216Z,27.35
2023-04-17T14:58:55.005Z,31.90
2023-04-17T15:01:21.763Z,19.55
2023-04-17T15:03:49.147Z,21.05
2023-04-17T15:06:16.923Z,17.70
2023-04-17T15:08:43.730Z,27.33
2023-04-17T15:11:10.793Z,24.60
2023-04-17T15:13:39.517Z,19.80
2023-04-17T15:16:06.683Z,25.05
2023-04-17T15:18:34.669Z,28.38
2023-04-17T15:21:01.529Z,28.23
2023-04-17T15:23:29.672Z,17.70
2023-04-17T15:25:57.859Z,18.17
2023-04-17T15:28:25.336Z,17.02
2023-04-17T15:30:52.093Z,18.10
2023-04-17T15:33:19.142Z,27.13
2023-04-17T15:35:45.993Z,14.88
2023-04-17T15:38:12.810Z,31.50
2023-04-17T15:40:39.470Z,34.75
2023-04-17T15:43:06.234Z,22.70
2023-04-17T15:45:32.903Z,15.77
2023-04-17T15:48:00.979Z,16.90
2023-04-17T15:50:27.914Z,19.48
2023-04-17T15:52:54.647Z,21.30
2023-04-17T15:55:21.520Z,15.05
2023-04-17T15:57:48.278Z,14.68
2023-04-17T16:00:15.648Z,15.65
2023-04-17T16:02:42.743Z,16.08
2023-04-17T16:05:09.732Z,16.15
2023-04-17T16:07:36.517Z,16.88
2023-04-17T16:10:03.307Z,15.88
2023-04-17T16:12:29.986Z,16.25
2023-04-17T16:14:56.698Z,16.08
2023-04-17T16:17:23.428Z,16.88
2023-04-17T16:19:50.847Z,16.80
2023-04-17T16:22:19.180Z,17.90
2023-04-17T16:24:45.885Z,18.15
2023-04-17T16:27:12.706Z,19.40
2023-04-17T16:29:39.437Z,19.35
2023-04-17T16:32:06.177Z,22.02
2023-04-17T16:34:33.333Z,17.73
2023-04-17T16:37:00.242Z,18.17
2023-04-17T16:39:26.958Z,17.35
2023-04-17T16:41:53.734Z,17.27
2023-04-17T16:44:20.489Z,17.88
2023-04-17T16:47:05.598Z,17.77
2023-04-17T16:49:36.553Z,18.50
2023-04-17T16:52:03.331Z,19.90
2023-04-17T16:54:30.026Z,20.42
2023-04-17T16:56:57.185Z,21.38
2023-04-17T16:59:24.049Z,19.48
2023-04-17T17:01:50.793Z,19.92
2023-04-17T17:04:17.589Z,21.55
2023-04-17T17:06:44.334Z,20.80
2023-04-17T17:09:11.253Z,20.70
2023-04-17T17:11:38.172Z,20.73
2023-04-17T17:14:04.994Z,20.65
2023-04-17T17:16:31.733Z,20.88
2023-04-17T17:19:00.142Z,21.42
2023-04-17T17:21:28.059Z,20.45
2023-04-17T17:23:54.827Z,21.08
2023-04-17T17:26:21.556Z,21.08
2023-04-17T17:28:51.246Z,19.40
2023-04-17T17:31:18.363Z,20.83
2023-04-17T17:33:49.947Z,19.08
2023-04-17T17:36:17.253Z,20.60
2023-04-17T17:38:44.539Z,21.05
2023-04-17T17:41:11.521Z,21.98
2023-04-17T17:43:38.261Z,22.23
2023-04-17T17:46:05.284Z,21.90
2023-04-17T17:48:33.726Z,22.00
2023-04-17T17:51:00.437Z,21.83
2023-04-17T17:53:27.324Z,23.63
2023-04-17T17:55:55.778Z,24.45
2023-04-17T17:58:22.830Z,24.65
2023-04-17T18:00:50.384Z,25.15
2023-04-17T18:03:18.239Z,24.17
2023-04-17T18:05:46.561Z,23.83
2023-04-17T18:08:14.476Z,26.05
2023-04-17T18:10:41.170Z,25.67
2023-04-17T18:13:08.252Z,25.13
2023-04-17T18:15:36.487Z,24.85
2023-04-17T18:18:03.501Z,25.58
2023-04-17T18:20:30.212Z,26.48
2023-04-17T18:22:57.656Z,25.10
2023-04-17T18:25:24.532Z,26.38
2023-04-17T18:27:51.290Z,26.05
2023-04-17T18:30:17.998Z,25.42
2023-04-17T18:32:44.793Z,25.20
2023-04-17T18:35:11.643Z,25.63
2023-04-17T18:37:39.568Z,25.88
2023-04-17T18:40:07.920Z,25.52
2023-04-17T18:42:34.683Z,25.80
2023-04-17T18:45:01.436Z,25.52
2023-04-17T18:47:28.340Z,26.20
2023-04-17T18:49:55.071Z,26.20
2023-04-17T18:52:21.945Z,26.00
2023-04-17T18:54:48.794Z,25.15
2023-04-17T18:57:15.555Z,25.50
2023-04-17T18:59:43.267Z,26.27
2023-04-17T19:02:10.289Z,26.92
2023-04-17T19:04:37.102Z,26.90
2023-04-17T19:07:04.015Z,27.55
2023-04-17T19:09:30.745Z,27.58
2023-04-17T19:11:58.455Z,29.35
2023-04-17T19:14:25.291Z,28.45
2023-04-17T19:16:52.114Z,29.52
2023-04-17T19:19:18.935Z,29.48
2023-04-17T19:21:45.610Z,28.83
2023-04-17T19:24:12.360Z,29.38
2023-04-17T19:26:39.119Z,28.95
2023-04-17T19:29:05.966Z,30.52
2023-04-17T19:31:33.427Z,28.90
2023-04-17T19:34:01.011Z,30.30
2023-04-17T19:36:28.188Z,32.45
2023-04-17T19:38:59.056Z,33.47
2023-04-17T19:41:26.362Z,34.33
2023-04-17T19:43:54.154Z,33.35
2023-04-17T19:46:22.339Z,31.67
2023-04-17T19:48:49.585Z,32.72
2023-04-17T19:51:16.849Z,31.70
2023-04-17T19:53:45.340Z,32.70
2023-04-17T19:56:12.123Z,33.13
2023-04-17T19:58:40.207Z,32.28
2023-04-17T20:01:06.970Z,32.45
2023-04-17T20:03:34.229Z,31.92
2023-04-17T20:06:03.492Z,32.67
2023-04-17T20:08:30.559Z,31.80
2023-04-17T20:10:57.320Z,31.73
2023-04-17T20:13:24.047Z,32.20
2023-04-17T20:15:50.760Z,33.28
2023-04-17T20:18:17.676Z,32.20
2023-04-17T20:20:44.539Z,32.90
2023-04-17T20:23:11.426Z,31.85
2023-04-17T20:25:38.310Z,32.33
2023-04-17T20:28:05.313Z,31.58
2023-04-17T20:30:32.300Z,31.00
2023-04-17T20:33:00.325Z,32.20
2023-04-17T20:35:27.208Z,31.33
2023-04-17T20:37:53.904Z,29.13
2023-04-17T20:40:20.663Z,30.90
2023-04-17T20:42:47.594Z,30.55
2023-04-17T20:45:14.890Z,31.45
2023-04-17T20:50:15.178Z,30.05
2023-04-17T20:52:41.972Z,29.73
2023-04-17T20:55:09.130Z,28.52
2023-04-17T20:57:36.000Z,27.90
2023-04-17T21:00:03.431Z,27.73
2023-04-17T21:02:31.870Z,29.90
2023-04-17T21:05:01.128Z,28.63
2023-04-17T21:07:27.845Z,28.20
2023-04-17T21:09:54.607Z,28.08
2023-04-17T21:12:21.324Z,26.67
2023-04-17T21:14:47.971Z,25.80
2023-04-17T21:17:14.706Z,26.45
2023-04-17T21:19:41.603Z,25.13
2023-04-17T21:22:09.063Z,26.13
2023-04-17T21:24:36.627Z,24.15
2023-04-17T21:27:03.965Z,25.33
2023-04-17T21:29:30.730Z,24.27
2023-04-17T21:31:57.631Z,23.48
2023-04-17T21:34:25.149Z,23.75
2023-04-17T21:36:54.183Z,24.48
2023-04-17T21:39:21.954Z,24.00
2023-04-17T21:41:48.878Z,23.27
2023-04-17T21:44:15.906Z,22.50
2023-04-17T21:46:46.207Z,23.15
2023-04-17T21:49:13.080Z,23.15
2023-04-17T21:51:39.862Z,23.00
2023-04-17T21:54:07.795Z,22.75
2023-04-17T21:56:34.535Z,21.38
2023-04-17T21:59:01.435Z,23.27
2023-04-17T22:01:28.348Z,22.27
2023-04-17T22:03:55.214Z,22.50
2023-04-17T22:06:22.187Z,21.42
2023-04-17T22:08:49.038Z,20.95
2023-04-17T22:11:15.803Z,22.50
2023-04-17T22:13:42.815Z,20.80
2023-04-17T22:16:09.615Z,21.13
2023-04-17T22:18:36.414Z,21.15
2023-04-17T22:21:03.599Z,21.17
2023-04-17T22:23:30.507Z,20.67
2023-04-17T22:25:57.223Z,22.02
2023-04-17T22:28:23.944Z,22.67
2023-04-17T22:30:52.033Z,22.23
2023-04-17T22:33:18.838Z,20.67
2023-04-17T22:35:45.612Z,21.35
2023-04-17T22:38:12.394Z,21.33
2023-04-17T22:40:40.196Z,20.15
2023-04-17T22:43:06.947Z,20.75
2023-04-17T22:45:34.086Z,21.63
2023-04-17T22:48:01.086Z,22.23
2023-04-17T22:50:30.442Z,20.40
2023-04-17T22:52:57.413Z,20.88
2023-04-17T22:55:24.156Z,20.67
2023-04-17T22:57:50.933Z,21.60
2023-04-17T23:00:19.994Z,22.38
2023-04-17T23:02:47.361Z,22.48
2023-04-17T23:05:14.410Z,21.85
2023-04-17T23:07:41.231Z,20.65
2023-04-17T23:10:08.313Z,22.45
2023-04-17T23:12:35.026Z,22.88
2023-04-17T23:15:01.893Z,22.20
2023-04-17T23:17:28.650Z,21.63
2023-04-17T23:19:55.673Z,23.17
2023-04-17T23:22:22.496Z,22.65
2023-04-17T23:24:49.298Z,24.23
2023-04-17T23:27:15.979Z,23.33
2023-04-17T23:29:42.709Z,23.80
2023-04-17T23:32:09.614Z,24.25
2023-04-17T23:34:37.520Z,23.88
2023-04-17T23:37:04.314Z,24.58
2023-04-17T23:39:31.068Z,24.70
2023-04-17T23:41:58.981Z,24.95
2023-04-17T23:44:25.760Z,25.95
2023-04-17T23:46:52.588Z,24.85
2023-04-17T23:49:19.326Z,24.10
2023-04-17T23:51:46.032Z,24.60
2023-04-17T23:54:12.997Z,24.40
2023-04-17T23:56:40.028Z,24.85
2023-04-17T23:59:06.824Z,25.30
